Time,TemperatureF,DewpointF,PressureIn,WindDirection,WindDirectionDegrees,WindSpeedMPH,WindSpeedGustMPH,Humidity,HourlyPrecipIn,Conditions,Clouds,dailyrainin,SoftwareType,DateUTC
2013-07-03 00:00:00,70.7,70.7,30.07,ESE,117,0.0,0.0,100,0.00,,,0.11,Wunderground v.1.15,2013-07-03 04:00:00,
2013-07-03 00:05:00,70.7,70.7,30.08,ESE,117,0.0,0.0,100,0.00,,,0.00,Wunderground v.1.15,2013-07-03 04:05:00,
2013-07-03 00:09:00,70.6,70.6,30.08,ESE,117,0.0,0.0,100,0.00,,,0.00,Wunderground v.1.15,2013-07-03 04:09:00,
2013-07-03 00:15:00,70.6,70.6,30.08,ESE,117,0.0,0.0,100,0.00,,,0.00,Wunderground v.1.15,2013-07-03 04:15:00,
2013-07-03 00:20:00,70.5,70.5,30.08,ESE,117,0.0,0.0,100,0.00,,,0.00,Wunderground v.1.15,2013-07-03 04:20:00,
2013-07-03 00:30:00,70.3,70.3,30.08,ESE,117,0.0,0.0,100,0.00,,,0.00,Wunderground v.1.15,2013-07-03 04:30:00,
2013-07-03 00:34:00,70.3,70.3,30.08,ESE,117,0.0,0.0,100,0.00,,,0.00,Wunderground v.1.15,2013-07-03 04:34:00,
2013-07-03 00:40:00,70.2,70.2,30.08,ESE,117,0.0,0.0,100,0.00,,,0.00,Wunderground v.1.15,2013-07-03 04:40:00,
2013-07-03 00:45:00,70.1,70.1,30.08,ESE,117,0.0,0.0,100,0.00,,,0.00,Wunderground v.1.15,2013-07-03 04:45:00,
2013-07-03 00:50:00,70.0,70.0,30.07,ESE,117,0.0,0.0,100,0.00,,,0.00,Wunderground v.1.15,2013-07-03 04:50:00,
2013-07-03 00:55:00,69.9,69.9,30.07,ESE,117,0.0,0.0,100,0.00,,,0.00,Wunderground v.1.15,2013-07-03 04:55:00,
2013-07-03 01:00:00,69.8,69.8,30.07,ESE,117,0.0,0.0,100,0.00,,,0.00,Wunderground v.1.15,2013-07-03 05:00:00,
2013-07-03 01:10:00,69.7,69.7,30.07,ESE,117,0.0,0.0,100,0.00,,,0.00,Wunderground v.1.15,2013-07-03 05:10:00,
2013-07-03 01:15:00,69.6,69.6,30.07,ESE,117,0.0,0.0,100,0.00,,,0.00,Wunderground v.1.15,2013-07-03 05:15:00,
2013-07-03 01:20:00,69.5,69.5,30.07,ESE,117,0.0,0.0,100,0.00,,,0.00,Wunderground v.1.15,2013-07-03 05:20:00,
2013-07-03 01:25:00,69.5,69.5,30.07,ESE,117,0.0,0.0,100,0.00,,,0.00,Wunderground v.1.15,2013-07-03 05:25:00,
2013-07-03 01:30:00,69.4,69.4,30.07,ESE,117,0.0,0.0,100,0.00,,,0.00,Wunderground v.1.15,2013-07-03 05:30:00,
2013-07-03 01:35:00,69.5,69.5,30.07,ESE,117,0.0,0.0,100,0.00,,,0.00,Wunderground v.1.15,2013-07-03 05:35:00,
2013-07-03 01:40:00,69.5,69.5,30.07,ESE,117,0.0,0.0,100,0.00,,,0.00,Wunderground v.1.15,2013-07-03 05:40:00,
2013-07-03 01:45:00,69.5,69.5,30.07,ESE,117,0.0,0.0,100,0.00,,,0.00,Wunderground v.1.15,2013-07-03 05:45:00,
2013-07-03 02:05:00,69.7,69.7,30.07,ESE,117,0.0,0.0,100,0.00,,,0.00,Wunderground v.1.15,2013-07-03 06:05:00,
2013-07-03 02:10:00,69.8,69.8,30.07,ESE,117,0.0,0.0,100,0.00,,,0.00,Wunderground v.1.15,2013-07-03 06:10:00,
2013-07-03 02:20:00,69.9,69.9,30.07,ESE,118,0.0,0.0,100,0.00,,,0.00,Wunderground v.1.15,2013-07-03 06:20:00,
2013-07-03 02:30:00,69.9,69.9,30.07,ESE,118,0.0,0.0,100,0.00,,,0.00,Wunderground v.1.15,2013-07-03 06:30:00,
2013-07-03 02:35:00,70.0,70.0,30.06,ESE,118,0.0,0.0,100,0.00,,,0.00,Wunderground v.1.15,2013-07-03 06:35:00,
2013-07-03 02:40:00,70.1,70.1,30.06,ESE,118,0.0,0.0,100,0.00,,,0.00,Wunderground v.1.15,2013-07-03 06:40:00,
2013-07-03 02:50:00,70.1,70.1,30.05,ESE,118,0.0,0.0,100,0.00,,,0.00,Wunderground v.1.15,2013-07-03 06:50:00,
2013-07-03 02:59:00,70.2,70.2,30.05,ESE,118,0.0,0.0,100,0.00,,,0.00,Wunderground v.1.15,2013-07-03 06:59:00,
2013-07-03 03:05:00,70.3,70.3,30.05,ESE,118,0.0,0.0,100,0.00,,,0.00,Wunderground v.1.15,2013-07-03 07:05:00,
2013-07-03 03:10:00,70.3,70.3,30.05,ESE,118,0.0,0.0,100,0.00,,,0.00,Wunderground v.1.15,2013-07-03 07:10:00,
2013-07-03 03:25:00,70.4,70.4,30.05,ESE,118,0.0,0.0,100,0.00,,,0.00,Wunderground v.1.15,2013-07-03 07:25:00,
2013-07-03 03:30:00,70.3,70.3,30.05,ESE,118,0.0,0.0,100,0.00,,,0.00,Wunderground v.1.15,2013-07-03 07:30:00,
2013-07-03 03:35:00,70.4,70.4,30.05,ESE,118,0.0,0.0,100,0.00,,,0.00,Wunderground v.1.15,2013-07-03 07:35:00,
2013-07-03 03:40:00,70.4,70.4,30.05,ESE,118,0.0,0.0,100,0.00,,,0.00,Wunderground v.1.15,2013-07-03 07:40:00,
2013-07-03 03:50:00,70.4,70.4,30.05,ESE,118,0.0,0.0,100,0.00,,,0.00,Wunderground v.1.15,2013-07-03 07:50:00,
2013-07-03 04:00:00,70.4,70.4,30.05,ESE,118,0.0,0.0,100,0.00,,,0.00,Wunderground v.1.15,2013-07-03 08:00:00,
2013-07-03 04:10:00,70.4,70.4,30.06,ESE,118,0.0,0.0,100,0.00,,,0.00,Wunderground v.1.15,2013-07-03 08:10:00,
2013-07-03 04:15:00,70.4,70.4,30.06,ESE,118,0.0,0.0,100,0.00,,,0.00,Wunderground v.1.15,2013-07-03 08:15:00,
2013-07-03 04:20:00,70.4,70.4,30.08,ESE,118,0.0,0.0,100,0.00,,,0.00,Wunderground v.1.15,2013-07-03 08:20:00,
2013-07-03 04:30:00,70.4,70.4,30.08,ESE,118,0.0,0.0,100,0.00,,,0.00,Wunderground v.1.15,2013-07-03 08:30:00,
2013-07-03 04:45:00,70.4,70.4,30.08,ESE,118,0.0,0.0,100,0.00,,,0.00,Wunderground v.1.15,2013-07-03 08:45:00,
2013-07-03 04:50:00,70.4,70.4,30.08,ESE,118,0.0,0.0,100,0.00,,,0.00,Wunderground v.1.15,2013-07-03 08:50:00,
2013-07-03 04:55:00,70.4,70.4,30.08,ESE,118,0.0,0.0,100,0.00,,,0.00,Wunderground v.1.15,2013-07-03 08:55:00,
2013-07-03 05:00:00,70.4,70.4,30.08,ESE,118,0.0,0.0,100,0.00,,,0.00,Wunderground v.1.15,2013-07-03 09:00:00,
2013-07-03 05:05:00,70.4,70.4,30.08,ESE,118,0.0,0.0,100,0.00,,,0.00,Wunderground v.1.15,2013-07-03 09:05:00,
2013-07-03 05:14:00,70.4,70.4,30.08,ESE,118,0.0,0.0,100,0.00,,,0.00,Wunderground v.1.15,2013-07-03 09:14:00,
2013-07-03 05:20:00,70.4,70.4,30.08,ESE,118,0.0,0.0,100,0.00,,,0.00,Wunderground v.1.15,2013-07-03 09:20:00,
2013-07-03 05:25:00,70.4,70.4,30.08,ESE,118,0.0,0.0,100,0.00,,,0.00,Wunderground v.1.15,2013-07-03 09:25:00,
2013-07-03 05:30:00,70.4,70.4,30.08,ESE,118,0.0,0.0,100,0.00,,,0.00,Wunderground v.1.15,2013-07-03 09:30:00,
2013-07-03 05:40:00,70.4,70.4,30.08,ESE,118,0.0,0.0,100,0.00,,,0.00,Wunderground v.1.15,2013-07-03 09:40:00,
2013-07-03 05:49:00,70.4,70.4,30.08,ESE,118,0.0,0.0,100,0.00,,,0.00,Wunderground v.1.15,2013-07-03 09:49:00,
2013-07-03 05:55:00,70.4,70.4,30.08,ESE,118,0.0,0.0,100,0.00,,,0.00,Wunderground v.1.15,2013-07-03 09:55:00,
2013-07-03 06:00:00,70.4,70.4,30.08,ESE,118,0.0,0.0,100,0.00,,,0.00,Wunderground v.1.15,2013-07-03 10:00:00,
2013-07-03 06:05:00,70.5,70.5,30.08,ESE,118,0.0,0.0,100,0.00,,,0.00,Wunderground v.1.15,2013-07-03 10:05:00,
2013-07-03 06:10:00,70.4,70.4,30.08,ESE,118,0.0,0.0,100,0.00,,,0.00,Wunderground v.1.15,2013-07-03 10:10:00,
2013-07-03 06:20:00,70.5,70.5,30.08,ESE,118,0.0,0.0,100,0.00,,,0.00,Wunderground v.1.15,2013-07-03 10:20:00,
2013-07-03 06:29:00,70.5,70.5,30.08,ESE,118,0.0,0.0,100,0.00,,,0.00,Wunderground v.1.15,2013-07-03 10:29:00,
2013-07-03 06:35:00,70.5,70.5,30.08,ESE,118,0.0,0.0,100,0.00,,,0.00,Wunderground v.1.15,2013-07-03 10:35:00,
2013-07-03 06:40:00,70.4,70.4,30.08,ESE,118,0.0,0.0,100,0.00,,,0.01,Wunderground v.1.15,2013-07-03 10:40:00,
2013-07-03 06:50:00,70.4,70.4,30.08,ESE,118,0.0,0.0,100,0.41,,,0.09,Wunderground v.1.15,2013-07-03 10:50:00,
2013-07-03 06:55:00,70.4,70.4,30.08,ESE,118,0.0,0.0,100,0.93,,,0.12,Wunderground v.1.15,2013-07-03 10:55:00,
2013-07-03 07:05:00,70.4,70.4,30.08,ESE,118,0.0,0.0,100,0.24,,,0.16,Wunderground v.1.15,2013-07-03 11:05:00,
2013-07-03 07:25:00,70.5,70.5,30.08,ESE,118,0.0,0.0,100,0.00,,,0.16,Wunderground v.1.15,2013-07-03 11:25:00,
2013-07-03 07:30:00,70.5,70.5,30.08,ESE,118,0.0,0.0,100,0.00,,,0.16,Wunderground v.1.15,2013-07-03 11:30:00,
2013-07-03 07:39:00,70.5,70.5,30.08,ESE,118,0.0,0.0,100,0.00,,,0.16,Wunderground v.1.15,2013-07-03 11:39:00,
2013-07-03 07:45:00,70.5,70.5,30.08,ESE,118,0.0,0.0,100,0.00,,,0.17,Wunderground v.1.15,2013-07-03 11:45:00,
2013-07-03 07:50:00,70.5,70.5,30.08,ESE,118,0.0,0.0,100,0.00,,,0.17,Wunderground v.1.15,2013-07-03 11:50:00,
2013-07-03 08:00:00,70.6,70.6,30.08,ESE,118,0.0,0.0,100,0.00,,,0.17,Wunderground v.1.15,2013-07-03 12:00:00,
2013-07-03 08:09:00,70.7,70.7,30.09,ESE,118,0.0,0.0,100,0.00,,,0.17,Wunderground v.1.15,2013-07-03 12:09:00,
2013-07-03 08:15:00,70.8,70.8,30.09,ESE,118,0.0,0.0,100,0.00,,,0.17,Wunderground v.1.15,2013-07-03 12:15:00,
2013-07-03 08:20:00,70.9,70.9,30.09,ESE,118,0.0,0.0,100,0.00,,,0.17,Wunderground v.1.15,2013-07-03 12:20:00,
2013-07-03 08:30:00,71.0,71.0,30.09,ESE,118,0.0,0.0,100,0.00,,,0.17,Wunderground v.1.15,2013-07-03 12:30:00,
2013-07-03 08:34:00,71.0,71.0,30.09,ESE,118,0.0,0.0,100,0.00,,,0.17,Wunderground v.1.15,2013-07-03 12:34:00,
2013-07-03 08:40:00,70.9,70.9,30.09,ESE,118,0.0,0.0,100,0.00,,,0.18,Wunderground v.1.15,2013-07-03 12:40:00,
2013-07-03 08:50:00,70.4,70.4,30.11,NE,39,0.0,0.0,100,0.39,,,0.39,Wunderground v.1.15,2013-07-03 12:50:00,
2013-07-03 08:55:00,70.1,70.1,30.11,NE,39,0.0,0.0,100,0.16,,,0.40,Wunderground v.1.15,2013-07-03 12:55:00,
2013-07-03 09:00:00,70.0,70.0,30.11,NE,38,0.0,0.0,100,0.13,,,0.41,Wunderground v.1.15,2013-07-03 13:00:00,
2013-07-03 09:10:00,70.1,70.1,30.12,NE,39,0.0,0.0,100,0.04,,,0.41,Wunderground v.1.15,2013-07-03 13:10:00,
2013-07-03 09:19:00,70.3,70.3,30.11,NE,39,0.0,0.0,100,0.00,,,0.42,Wunderground v.1.15,2013-07-03 13:19:00,
2013-07-03 09:25:00,70.3,70.3,30.11,NE,38,0.0,0.0,100,0.00,,,0.42,Wunderground v.1.15,2013-07-03 13:25:00,
2013-07-03 09:30:00,70.3,70.3,30.11,NE,39,0.0,0.0,100,0.00,,,0.42,Wunderground v.1.15,2013-07-03 13:30:00,
2013-07-03 09:40:00,70.6,70.6,30.12,NE,39,0.0,0.0,100,0.00,,,0.42,Wunderground v.1.15,2013-07-03 13:40:00,
2013-07-03 09:50:00,71.1,71.1,30.11,NE,39,0.0,0.0,100,0.00,,,0.42,Wunderground v.1.15,2013-07-03 13:50:00,
2013-07-03 09:54:00,71.3,71.3,30.11,NE,39,0.0,0.0,100,0.00,,,0.42,Wunderground v.1.15,2013-07-03 13:54:00,
2013-07-03 09:59:00,71.4,71.4,30.11,NE,39,0.0,0.0,100,0.00,,,0.42,Wunderground v.1.15,2013-07-03 13:59:00,
2013-07-03 10:05:00,71.3,71.3,30.11,NE,39,0.0,0.0,100,0.00,,,0.42,Wunderground v.1.15,2013-07-03 14:05:00,
2013-07-03 10:15:00,71.2,71.2,30.11,NE,40,0.0,0.0,100,3.53,,,0.51,Wunderground v.1.15,2013-07-03 14:15:00,
2013-07-03 10:20:00,71.0,71.0,30.12,NE,40,0.0,0.0,100,0.59,,,0.65,Wunderground v.1.15,2013-07-03 14:20:00,
2013-07-03 10:29:00,71.0,71.0,30.12,NE,40,0.0,0.0,100,0.29,,,0.70,Wunderground v.1.15,2013-07-03 14:29:00,
2013-07-03 10:35:00,71.0,71.0,30.12,NE,40,0.0,0.0,100,0.47,,,0.74,Wunderground v.1.15,2013-07-03 14:35:00,
2013-07-03 10:40:00,70.9,70.9,30.12,NE,42,0.0,0.0,100,1.79,,,0.88,Wunderground v.1.15,2013-07-03 14:40:00,
2013-07-03 10:45:00,70.8,70.8,30.12,NE,41,0.0,0.0,100,0.15,,,0.91,Wunderground v.1.15,2013-07-03 14:45:00,
2013-07-03 10:55:00,70.7,70.7,30.13,NE,42,0.0,0.0,100,0.04,,,0.91,Wunderground v.1.15,2013-07-03 14:55:00,
2013-07-03 11:05:00,70.9,70.9,30.13,NE,41,0.0,0.0,100,0.00,,,0.91,Wunderground v.1.15,2013-07-03 15:05:00,
2013-07-03 11:10:00,71.1,71.1,30.13,NE,42,0.0,0.0,100,0.00,,,0.91,Wunderground v.1.15,2013-07-03 15:10:00,
2013-07-03 11:15:00,71.3,71.3,30.13,NE,41,0.0,0.0,100,0.00,,,0.91,Wunderground v.1.15,2013-07-03 15:15:00,
2013-07-03 11:20:00,71.9,71.9,30.13,NE,42,0.0,0.0,100,0.00,,,0.91,Wunderground v.1.15,2013-07-03 15:20:00,
2013-07-03 11:25:00,72.3,72.3,30.13,NE,41,0.0,0.0,100,0.00,,,0.91,Wunderground v.1.15,2013-07-03 15:25:00,
2013-07-03 11:35:00,72.3,72.3,30.13,NE,42,0.0,0.0,100,0.00,,,0.92,Wunderground v.1.15,2013-07-03 15:35:00,
2013-07-03 11:40:00,72.1,72.1,30.13,NE,42,0.0,0.0,100,0.10,,,0.93,Wunderground v.1.15,2013-07-03 15:40:00,
2013-07-03 11:50:00,72.0,72.0,30.14,NE,42,0.0,0.0,100,0.53,,,1.09,Wunderground v.1.15,2013-07-03 15:50:00,
2013-07-03 11:54:00,71.8,71.8,30.14,NE,41,0.0,0.0,100,0.14,,,1.10,Wunderground v.1.15,2013-07-03 15:54:00,
2013-07-03 11:59:00,71.4,71.4,30.14,NE,42,0.0,0.0,100,0.09,,,1.11,Wunderground v.1.15,2013-07-03 15:59:00,
2013-07-03 12:05:00,71.4,71.4,30.13,NE,41,0.0,0.0,100,0.07,,,1.11,Wunderground v.1.15,2013-07-03 16:05:00,
2013-07-03 12:15:00,71.7,71.7,30.13,NE,42,0.0,0.0,100,0.28,,,1.16,Wunderground v.1.15,2013-07-03 16:15:00,
2013-07-03 12:25:00,71.8,71.8,30.12,NE,42,0.0,0.0,100,0.08,,,1.18,Wunderground v.1.15,2013-07-03 16:25:00,
2013-07-03 12:34:00,71.6,71.6,30.13,NE,42,0.0,0.0,100,0.64,,,1.20,Wunderground v.1.15,2013-07-03 16:34:00,
2013-07-03 12:40:00,71.4,71.4,30.13,NE,51,0.0,1.0,100,0.90,,,1.27,Wunderground v.1.15,2013-07-03 16:40:00,
2013-07-03 12:45:00,69.2,69.2,30.13,East,79,0.0,1.0,100,2.36,,,1.41,Wunderground v.1.15,2013-07-03 16:45:00,
2013-07-03 12:55:00,67.3,67.3,30.14,East,86,0.0,0.0,100,0.39,,,1.67,Wunderground v.1.15,2013-07-03 16:55:00,
2013-07-03 13:00:00,67.2,67.2,30.14,East,86,0.0,0.0,100,0.10,,,1.67,Wunderground v.1.15,2013-07-03 17:00:00,
2013-07-03 13:10:00,67.0,67.0,30.15,East,86,0.0,0.0,100,0.04,,,1.67,Wunderground v.1.15,2013-07-03 17:10:00,
2013-07-03 13:20:00,67.0,67.0,30.14,East,86,0.0,0.0,100,0.00,,,1.67,Wunderground v.1.15,2013-07-03 17:20:00,
2013-07-03 13:25:00,67.1,67.1,30.14,East,86,0.0,0.0,100,0.00,,,1.67,Wunderground v.1.15,2013-07-03 17:25:00,
2013-07-03 13:30:00,67.2,67.2,30.14,East,86,0.0,0.0,100,0.00,,,1.67,Wunderground v.1.15,2013-07-03 17:30:00,
2013-07-03 13:40:00,67.2,67.2,30.14,East,86,0.0,0.0,100,0.00,,,1.67,Wunderground v.1.15,2013-07-03 17:40:00,
2013-07-03 13:50:00,67.2,67.2,30.16,South,186,0.0,0.0,100,1.21,,,1.78,Wunderground v.1.15,2013-07-03 17:50:00,
2013-07-03 14:00:00,66.9,66.9,30.16,South,186,0.0,0.0,100,0.51,,,1.86,Wunderground v.1.15,2013-07-03 18:00:00,
2013-07-03 14:05:00,66.8,66.8,30.16,South,186,0.0,0.0,100,0.36,,,1.91,Wunderground v.1.15,2013-07-03 18:05:00,
2013-07-03 14:15:00,66.9,66.9,30.16,South,186,0.0,0.0,100,0.77,,,2.16,Wunderground v.1.15,2013-07-03 18:15:00,
2013-07-03 14:20:00,66.9,66.9,30.15,South,186,0.0,0.0,100,0.27,,,2.18,Wunderground v.1.15,2013-07-03 18:20:00,
2013-07-03 14:30:00,67.1,67.1,30.15,South,186,0.0,0.0,100,0.05,,,2.18,Wunderground v.1.15,2013-07-03 18:30:00,
2013-07-03 14:35:00,67.1,67.1,30.15,South,186,0.0,0.0,100,0.05,,,2.19,Wunderground v.1.15,2013-07-03 18:35:00,
2013-07-03 14:41:00,67.1,67.1,30.15,South,186,0.0,0.0,100,0.09,,,2.20,Wunderground v.1.15,2013-07-03 18:41:00,
2013-07-03 14:46:00,67.1,67.1,30.15,South,186,0.0,0.0,100,0.17,,,2.22,Wunderground v.1.15,2013-07-03 18:46:00,
2013-07-03 14:51:00,67.2,67.2,30.16,South,186,0.0,0.0,100,0.46,,,2.24,Wunderground v.1.15,2013-07-03 18:51:00,
2013-07-03 14:57:00,67.1,67.1,30.16,South,186,0.0,0.0,100,0.28,,,2.27,Wunderground v.1.15,2013-07-03 18:57:00,
2013-07-03 15:02:00,67.2,67.2,30.16,South,186,0.0,0.0,100,0.15,,,2.28,Wunderground v.1.15,2013-07-03 19:02:00,
2013-07-03 15:07:00,67.2,67.2,30.16,South,186,0.0,0.0,100,0.13,,,2.29,Wunderground v.1.15,2013-07-03 19:07:00,
2013-07-03 15:12:00,67.2,67.2,30.16,South,186,0.0,0.0,100,0.13,,,2.30,Wunderground v.1.15,2013-07-03 19:12:00,
2013-07-03 15:17:00,67.2,67.2,30.15,South,186,0.0,0.0,100,0.17,,,2.32,Wunderground v.1.15,2013-07-03 19:17:00,
2013-07-03 15:22:00,67.2,67.2,30.15,South,186,0.0,0.0,100,0.09,,,2.33,Wunderground v.1.15,2013-07-03 19:22:00,
2013-07-03 15:27:00,67.1,67.1,30.15,South,186,0.0,0.0,100,0.09,,,2.33,Wunderground v.1.15,2013-07-03 19:27:00,
2013-07-03 15:32:00,67.1,67.1,30.15,South,186,0.0,0.0,100,0.10,,,2.34,Wunderground v.1.15,2013-07-03 19:32:00,
2013-07-03 15:37:00,67.1,67.1,30.15,South,186,0.0,0.0,100,0.12,,,2.35,Wunderground v.1.15,2013-07-03 19:37:00,
2013-07-03 15:42:00,67.1,67.1,30.15,South,186,0.0,0.0,100,0.11,,,2.36,Wunderground v.1.15,2013-07-03 19:42:00,
2013-07-03 15:47:00,67.2,67.2,30.16,South,186,0.0,0.0,100,0.12,,,2.37,Wunderground v.1.15,2013-07-03 19:47:00,
2013-07-03 15:52:00,67.3,67.3,30.16,South,186,0.0,0.0,100,0.09,,,2.38,Wunderground v.1.15,2013-07-03 19:52:00,
2013-07-03 15:58:00,67.4,67.4,30.16,South,186,0.0,0.0,100,0.08,,,2.38,Wunderground v.1.15,2013-07-03 19:58:00,
2013-07-03 16:03:00,67.5,67.5,30.15,South,187,0.0,0.0,100,0.07,,,2.39,Wunderground v.1.15,2013-07-03 20:03:00,
2013-07-03 16:08:00,67.4,67.4,30.15,South,187,0.0,0.0,100,0.06,,,2.39,Wunderground v.1.15,2013-07-03 20:08:00,
2013-07-03 16:14:00,67.3,67.3,30.15,South,187,0.0,0.0,100,0.05,,,2.40,Wunderground v.1.15,2013-07-03 20:14:00,
2013-07-03 16:19:00,67.3,67.3,30.14,South,188,0.0,0.0,100,0.05,,,2.40,Wunderground v.1.15,2013-07-03 20:19:00,
2013-07-03 16:24:00,67.3,67.3,30.14,South,188,0.0,0.0,100,0.05,,,2.40,Wunderground v.1.15,2013-07-03 20:24:00,
2013-07-03 16:29:00,67.4,67.4,30.14,South,187,0.0,0.0,100,0.00,,,2.40,Wunderground v.1.15,2013-07-03 20:29:00,
2013-07-03 16:35:00,67.5,67.5,30.14,South,187,0.0,0.0,100,0.00,,,2.40,Wunderground v.1.15,2013-07-03 20:35:00,
2013-07-03 16:40:00,67.7,67.7,30.14,South,187,0.0,0.0,100,0.00,,,2.40,Wunderground v.1.15,2013-07-03 20:40:00,
2013-07-03 16:45:00,67.6,67.6,30.14,South,188,0.0,0.0,100,0.00,,,2.40,Wunderground v.1.15,2013-07-03 20:45:00,
2013-07-03 16:50:00,67.7,67.7,30.15,South,188,0.0,0.0,100,0.00,,,2.40,Wunderground v.1.15,2013-07-03 20:50:00,
2013-07-03 16:55:00,67.7,67.7,30.15,South,188,0.0,0.0,100,0.00,,,2.40,Wunderground v.1.15,2013-07-03 20:55:00,
2013-07-03 17:00:00,67.7,67.7,30.15,South,188,0.0,0.0,100,0.00,,,2.40,Wunderground v.1.15,2013-07-03 21:00:00,
2013-07-03 17:05:00,67.7,67.7,30.14,South,187,0.0,0.0,100,0.00,,,2.40,Wunderground v.1.15,2013-07-03 21:05:00,
2013-07-03 17:11:00,67.6,67.6,30.14,South,188,0.0,0.0,100,0.00,,,2.40,Wunderground v.1.15,2013-07-03 21:11:00,
2013-07-03 17:16:00,67.5,67.5,30.13,ENE,78,0.0,1.0,100,0.00,,,2.40,Wunderground v.1.15,2013-07-03 21:16:00,
2013-07-03 17:22:00,67.3,67.3,30.13,ENE,75,0.0,0.0,100,0.00,,,2.40,Wunderground v.1.15,2013-07-03 21:22:00,
2013-07-03 17:27:00,67.5,67.5,30.13,ENE,76,0.0,0.0,100,0.00,,,2.40,Wunderground v.1.15,2013-07-03 21:27:00,
2013-07-03 17:32:00,67.6,67.6,30.13,ENE,76,0.0,0.0,100,0.00,,,2.40,Wunderground v.1.15,2013-07-03 21:32:00,
2013-07-03 17:37:00,67.8,67.8,30.13,ENE,75,0.0,0.0,100,0.00,,,2.40,Wunderground v.1.15,2013-07-03 21:37:00,
2013-07-03 17:43:00,67.9,67.9,30.13,ENE,76,0.0,0.0,100,0.00,,,2.40,Wunderground v.1.15,2013-07-03 21:43:00,
2013-07-03 17:49:00,67.8,67.8,30.13,ENE,75,0.0,0.0,100,0.00,,,2.40,Wunderground v.1.15,2013-07-03 21:49:00,
2013-07-03 17:54:00,67.9,67.9,30.13,ENE,76,0.0,0.0,100,0.00,,,2.40,Wunderground v.1.15,2013-07-03 21:54:00,
2013-07-03 18:00:00,67.9,67.9,30.13,ENE,76,0.0,0.0,100,0.00,,,2.40,Wunderground v.1.15,2013-07-03 22:00:00,
2013-07-03 18:05:00,67.7,67.7,30.14,ENE,75,0.0,0.0,100,0.00,,,2.40,Wunderground v.1.15,2013-07-03 22:05:00,
2013-07-03 18:10:00,67.7,67.7,30.14,ENE,76,0.0,0.0,100,0.00,,,2.40,Wunderground v.1.15,2013-07-03 22:10:00,
2013-07-03 18:15:00,67.7,67.7,30.14,ENE,75,0.0,0.0,100,0.00,,,2.40,Wunderground v.1.15,2013-07-03 22:15:00,
2013-07-03 18:20:00,67.7,67.7,30.14,WNW,297,0.0,0.0,100,0.00,,,2.40,Wunderground v.1.15,2013-07-03 22:20:00,
2013-07-03 18:25:00,67.6,67.6,30.14,WNW,297,0.0,0.0,100,0.00,,,2.40,Wunderground v.1.15,2013-07-03 22:25:00,
2013-07-03 18:30:00,67.5,67.5,30.14,WNW,296,0.0,0.0,100,0.00,,,2.40,Wunderground v.1.15,2013-07-03 22:30:00,
2013-07-03 18:36:00,67.4,67.4,30.13,WNW,296,0.0,0.0,100,0.00,,,2.40,Wunderground v.1.15,2013-07-03 22:36:00,
2013-07-03 18:41:00,67.4,67.4,30.13,WNW,297,0.0,0.0,100,0.00,,,2.40,Wunderground v.1.15,2013-07-03 22:41:00,
2013-07-03 18:46:00,67.4,67.4,30.13,WNW,297,0.0,0.0,100,0.00,,,2.40,Wunderground v.1.15,2013-07-03 22:46:00,
2013-07-03 18:51:00,67.4,67.4,30.13,WNW,297,0.0,0.0,100,0.00,,,2.40,Wunderground v.1.15,2013-07-03 22:51:00,
2013-07-03 18:56:00,67.4,67.4,30.13,WNW,297,0.0,0.0,100,0.00,,,2.40,Wunderground v.1.15,2013-07-03 22:56:00,
2013-07-03 19:01:00,67.4,67.4,30.13,WNW,297,0.0,0.0,100,0.00,,,2.40,Wunderground v.1.15,2013-07-03 23:01:00,
2013-07-03 19:06:00,67.3,67.3,30.14,WNW,296,0.0,0.0,100,0.00,,,2.40,Wunderground v.1.15,2013-07-03 23:06:00,
2013-07-03 19:11:00,67.3,67.3,30.14,WNW,297,0.0,0.0,100,0.00,,,2.40,Wunderground v.1.15,2013-07-03 23:11:00,
2013-07-03 19:17:00,67.3,67.3,30.15,WNW,297,0.0,0.0,100,0.00,,,2.40,Wunderground v.1.15,2013-07-03 23:17:00,
2013-07-03 19:22:00,67.3,67.3,30.15,WNW,297,0.0,0.0,100,0.00,,,2.40,Wunderground v.1.15,2013-07-03 23:22:00,
2013-07-03 19:27:00,67.3,67.3,30.15,WNW,296,0.0,0.0,100,0.00,,,2.40,Wunderground v.1.15,2013-07-03 23:27:00,
2013-07-03 19:33:00,67.4,67.4,30.15,WNW,296,0.0,0.0,100,0.00,,,2.40,Wunderground v.1.15,2013-07-03 23:33:00,
2013-07-03 19:38:00,67.3,67.3,30.15,WNW,297,0.0,0.0,100,0.00,,,2.40,Wunderground v.1.15,2013-07-03 23:38:00,
2013-07-03 19:43:00,67.3,67.3,30.15,WNW,297,0.0,0.0,100,0.00,,,2.40,Wunderground v.1.15,2013-07-03 23:43:00,
2013-07-03 19:48:00,67.3,67.3,30.15,WNW,297,0.0,0.0,100,0.00,,,2.40,Wunderground v.1.15,2013-07-03 23:48:00,
2013-07-03 19:53:00,67.2,67.2,30.15,WNW,297,0.0,0.0,100,0.00,,,2.40,Wunderground v.1.15,2013-07-03 23:53:00,
2013-07-03 19:58:00,67.1,67.1,30.15,WNW,297,0.0,0.0,100,0.00,,,2.40,Wunderground v.1.15,2013-07-03 23:58:00,
2013-07-03 20:05:00,67.0,67.0,30.15,WNW,296,0.0,0.0,100,0.00,,,2.40,Wunderground v.1.15,2013-07-04 00:05:00,
2013-07-03 20:10:00,67.0,67.0,30.15,WNW,297,0.0,0.0,100,0.00,,,2.40,Wunderground v.1.15,2013-07-04 00:10:00,
2013-07-03 20:15:00,67.1,67.1,30.15,WNW,297,0.0,0.0,100,0.00,,,2.40,Wunderground v.1.15,2013-07-04 00:15:00,
2013-07-03 20:20:00,67.0,67.0,30.15,WNW,297,0.0,0.0,100,0.00,,,2.40,Wunderground v.1.15,2013-07-04 00:20:00,
2013-07-03 20:25:00,67.0,67.0,30.15,WNW,296,0.0,0.0,100,0.00,,,2.40,Wunderground v.1.15,2013-07-04 00:25:00,
2013-07-03 20:30:00,67.0,67.0,30.15,WNW,296,0.0,0.0,100,0.00,,,2.40,Wunderground v.1.15,2013-07-04 00:30:00,
2013-07-03 20:36:00,66.9,66.9,30.16,WNW,297,0.0,0.0,100,0.00,,,2.40,Wunderground v.1.15,2013-07-04 00:36:00,
2013-07-03 20:41:00,67.0,67.0,30.16,WNW,297,0.0,0.0,100,0.00,,,2.40,Wunderground v.1.15,2013-07-04 00:41:00,
2013-07-03 20:46:00,66.9,66.9,30.16,WNW,297,0.0,0.0,100,0.00,,,2.40,Wunderground v.1.15,2013-07-04 00:46:00,
2013-07-03 20:52:00,67.0,67.0,30.16,WNW,296,0.0,0.0,100,0.00,,,2.40,Wunderground v.1.15,2013-07-04 00:52:00,
2013-07-03 20:57:00,66.9,66.9,30.16,WNW,297,0.0,0.0,100,0.00,,,2.40,Wunderground v.1.15,2013-07-04 00:57:00,
2013-07-03 21:02:00,66.9,66.9,30.16,WNW,297,0.0,0.0,100,0.00,,,2.41,Wunderground v.1.15,2013-07-04 01:02:00,
2013-07-03 21:07:00,66.9,66.9,30.16,WNW,297,0.0,0.0,100,0.00,,,2.41,Wunderground v.1.15,2013-07-04 01:07:00,
2013-07-03 21:13:00,66.8,66.8,30.16,WNW,296,0.0,0.0,100,0.00,,,2.41,Wunderground v.1.15,2013-07-04 01:13:00,
2013-07-03 21:18:00,66.8,66.8,30.16,WNW,297,1.0,1.0,100,0.00,,,2.41,Wunderground v.1.15,2013-07-04 01:18:00,
2013-07-03 21:23:00,66.7,66.7,30.16,WNW,296,0.0,0.0,100,0.00,,,2.41,Wunderground v.1.15,2013-07-04 01:23:00,
2013-07-03 21:28:00,66.7,66.7,30.16,WNW,296,0.0,0.0,100,0.00,,,2.41,Wunderground v.1.15,2013-07-04 01:28:00,
2013-07-03 21:33:00,66.6,66.6,30.17,WNW,296,0.0,0.0,100,0.00,,,2.42,Wunderground v.1.15,2013-07-04 01:33:00,
2013-07-03 21:39:00,66.5,66.5,30.17,WNW,297,0.0,0.0,100,0.00,,,2.42,Wunderground v.1.15,2013-07-04 01:39:00,
2013-07-03 21:44:00,66.5,66.5,30.17,WNW,296,0.0,0.0,100,0.00,,,2.42,Wunderground v.1.15,2013-07-04 01:44:00,
2013-07-03 21:49:00,66.5,66.5,30.16,WNW,297,0.0,0.0,100,0.00,,,2.42,Wunderground v.1.15,2013-07-04 01:49:00,
2013-07-03 21:55:00,66.4,66.4,30.16,WNW,297,0.0,0.0,100,0.00,,,2.42,Wunderground v.1.15,2013-07-04 01:55:00,
2013-07-03 22:00:00,66.4,66.4,30.16,WNW,297,0.0,0.0,100,0.00,,,2.42,Wunderground v.1.15,2013-07-04 02:00:00,
2013-07-03 22:05:00,66.4,66.4,30.17,WNW,297,0.0,0.0,100,0.00,,,2.42,Wunderground v.1.15,2013-07-04 02:05:00,
2013-07-03 22:10:00,66.4,66.4,30.17,WNW,296,0.0,0.0,100,0.00,,,2.42,Wunderground v.1.15,2013-07-04 02:10:00,
2013-07-03 22:15:00,66.4,66.4,30.17,WNW,296,0.0,0.0,100,0.00,,,2.43,Wunderground v.1.15,2013-07-04 02:15:00,
2013-07-03 22:20:00,66.4,66.4,30.17,WNW,297,0.0,0.0,100,0.00,,,2.43,Wunderground v.1.15,2013-07-04 02:20:00,
2013-07-03 22:26:00,66.4,66.4,30.17,WNW,296,0.0,0.0,100,0.07,,,2.44,Wunderground v.1.15,2013-07-04 02:26:00,
2013-07-03 22:31:00,66.4,66.4,30.17,WNW,297,0.0,0.0,100,0.07,,,2.44,Wunderground v.1.15,2013-07-04 02:31:00,
2013-07-03 22:36:00,66.4,66.4,30.17,WNW,297,0.0,0.0,100,0.05,,,2.44,Wunderground v.1.15,2013-07-04 02:36:00,
2013-07-03 22:41:00,66.5,66.5,30.17,WNW,296,0.0,0.0,100,0.00,,,2.44,Wunderground v.1.15,2013-07-04 02:41:00,
2013-07-03 22:46:00,66.4,66.4,30.17,WNW,296,0.0,0.0,100,0.00,,,2.44,Wunderground v.1.15,2013-07-04 02:46:00,
2013-07-03 22:51:00,66.5,66.5,30.17,WNW,297,0.0,0.0,100,0.00,,,2.44,Wunderground v.1.15,2013-07-04 02:51:00,
2013-07-03 22:57:00,66.5,66.5,30.17,WNW,296,0.0,0.0,100,0.00,,,2.44,Wunderground v.1.15,2013-07-04 02:57:00,
2013-07-03 23:02:00,66.5,66.5,30.17,WNW,297,0.0,0.0,100,0.00,,,2.44,Wunderground v.1.15,2013-07-04 03:02:00,
2013-07-03 23:08:00,66.5,66.5,30.17,WNW,297,0.0,0.0,100,0.00,,,2.44,Wunderground v.1.15,2013-07-04 03:08:00,
2013-07-03 23:14:00,66.5,66.5,30.17,WNW,297,0.0,0.0,100,0.00,,,2.44,Wunderground v.1.15,2013-07-04 03:14:00,
2013-07-03 23:19:00,66.5,66.5,30.17,WNW,296,0.0,0.0,100,0.00,,,2.44,Wunderground v.1.15,2013-07-04 03:19:00,
2013-07-03 23:24:00,66.6,66.6,30.17,WNW,296,0.0,0.0,100,0.00,,,2.44,Wunderground v.1.15,2013-07-04 03:24:00,
2013-07-03 23:29:00,66.6,66.6,30.17,WNW,297,0.0,0.0,100,0.00,,,2.45,Wunderground v.1.15,2013-07-04 03:29:00,
2013-07-03 23:34:00,66.6,66.6,30.17,WNW,297,0.0,0.0,100,0.00,,,2.45,Wunderground v.1.15,2013-07-04 03:34:00,
2013-07-03 23:39:00,66.5,66.5,30.17,WNW,296,0.0,0.0,100,0.00,,,2.45,Wunderground v.1.15,2013-07-04 03:39:00,
2013-07-03 23:44:00,66.5,66.5,30.17,WNW,297,0.0,0.0,100,0.00,,,2.45,Wunderground v.1.15,2013-07-04 03:44:00,
2013-07-03 23:49:00,66.5,66.5,30.17,WNW,297,0.0,0.0,100,0.00,,,2.45,Wunderground v.1.15,2013-07-04 03:49:00,
2013-07-03 23:55:00,66.4,66.4,30.17,WNW,297,0.0,0.0,100,0.00,,,2.45,Wunderground v.1.15,2013-07-04 03:55:00,